Time;durP1;ratioP1;P1;durP2;ratioP2;P2;SDS_P1;SDS_P2;PMS_P1;PMS_P2;Temp;Humidity;BMP_temperature;BMP_pressure;BME280_temperature;BME280_humidity;BME280_pressure;Samples;Min_cycle;Max_cycle;Signal;HPM_P1;HPM_P2
2023/04/07 00:09:01;;;;;;;8.73;5.30;;;10.50;56.60;;;;;;20919614;28;20635;-67
2023/04/07 00:19:02;;;;;;;9.67;5.73;;;10.30;58.30;;;;;;20917496;28;20212;-66
2023/04/07 00:29:04;;;;;;;8.97;6.13;;;10.20;59.60;;;;;;20917480;28;20283;-67
2023/04/07 00:39:06;;;;;;;7.80;5.60;;;10.20;60.20;;;;;;20917301;28;20541;-67
2023/04/07 00:49:07;;;;;;;8.00;5.70;;;10.10;63.40;;;;;;20915626;28;20285;-66
2023/04/07 00:59:12;;;;;;;10.23;6.40;;;10.20;65.60;;;;;;20915222;28;20205;-67
2023/04/07 01:09:22;;;;;;;10.30;6.57;;;10.10;67.00;;;;;;20914976;28;20702;-71
2023/04/07 01:19:32;;;;;;;9.27;7.07;;;10.10;69.00;;;;;;20914122;28;20200;-69
2023/04/07 01:29:39;;;;;;;11.30;6.97;;;9.90;72.60;;;;;;20912845;28;20311;-67
2023/04/07 01:39:41;;;;;;;8.63;6.70;;;10.00;73.40;;;;;;20911866;28;20632;-66
2023/04/07 01:49:44;;;;;;;11.40;7.10;;;10.00;75.50;;;;;;20911562;28;20286;-66
2023/04/07 01:59:46;;;;;;;9.20;7.23;;;9.90;78.40;;;;;;20912046;28;20206;-66
2023/04/07 02:09:50;;;;;;;9.00;7.37;;;9.80;79.90;;;;;;20911790;28;20718;-68
2023/04/07 02:19:54;;;;;;;12.17;8.17;;;9.80;81.40;;;;;;20911129;28;20208;-66
2023/04/07 02:29:56;;;;;;;12.37;8.23;;;9.70;83.00;;;;;;20910743;28;20241;-67
2023/04/07 02:39:57;;;;;;;11.60;8.23;;;9.60;84.70;;;;;;20918220;28;20203;-66
2023/04/07 02:49:59;;;;;;;10.90;7.37;;;9.60;86.00;;;;;;20925174;28;20243;-67
2023/04/07 03:00:01;;;;;;;9.27;7.13;;;9.60;87.20;;;;;;20924987;28;20208;-68
2023/04/07 03:10:03;;;;;;;8.93;6.63;;;9.60;88.20;;;;;;20924387;28;20635;-66
2023/04/07 03:20:06;;;;;;;10.63;6.80;;;9.50;88.90;;;;;;20923717;28;20641;-68
2023/04/07 03:30:10;;;;;;;11.10;7.80;;;9.50;90.00;;;;;;20922285;28;20235;-66
2023/04/07 03:40:11;;;;;;;11.80;7.67;;;9.50;90.40;;;;;;20921528;28;20672;-67
2023/04/07 03:50:13;;;;;;;10.13;7.77;;;9.50;90.80;;;;;;20920710;28;20243;-70
2023/04/07 04:00:15;;;;;;;9.67;7.60;;;9.40;91.30;;;;;;20920209;28;20200;-67
2023/04/07 04:10:17;;;;;;;11.30;7.90;;;9.40;91.80;;;;;;20919172;28;20289;-67
2023/04/07 04:20:21;;;;;;;12.80;8.70;;;9.40;92.10;;;;;;20919092;28;20215;-68
2023/04/07 04:30:22;;;;;;;12.23;8.20;;;9.30;92.40;;;;;;20917766;28;20667;-67
2023/04/07 04:40:24;;;;;;;12.30;8.63;;;9.30;92.70;;;;;;20916796;28;20203;-66
2023/04/07 04:50:26;;;;;;;12.67;8.63;;;9.20;92.90;;;;;;20916258;28;20240;-66
2023/04/07 05:00:27;;;;;;;14.60;9.70;;;9.10;93.40;;;;;;20914882;28;20254;-67
2023/04/07 05:10:29;;;;;;;14.07;9.57;;;9.10;93.60;;;;;;20914571;28;20243;-67
2023/04/07 05:20:31;;;;;;;14.47;10.00;;;9.10;93.80;;;;;;20914200;28;20207;-66
2023/04/07 05:30:33;;;;;;;11.97;8.57;;;9.30;93.90;;;;;;20913933;28;20243;-66
2023/04/07 05:40:35;;;;;;;13.43;9.07;;;9.20;94.10;;;;;;20912897;28;20210;-66
2023/04/07 05:50:38;;;;;;;13.77;9.73;;;9.20;94.40;;;;;;20912807;28;20300;-70
2023/04/07 06:00:40;;;;;;;13.40;10.10;;;9.30;94.80;;;;;;20912134;28;20269;-66
2023/04/07 06:10:43;;;;;;;16.20;9.57;;;9.30;94.90;;;;;;20912280;28;20291;-71
2023/04/07 06:20:44;;;;;;;15.33;10.27;;;9.40;95.10;;;;;;20928301;28;20299;-70
2023/04/07 06:30:46;;;;;;;14.77;10.13;;;9.40;95.10;;;;;;20928031;28;20293;-72
2023/04/07 06:40:48;;;;;;;15.23;9.67;;;9.50;95.20;;;;;;20926446;28;20204;-71
2023/04/07 06:50:49;;;;;;;14.77;10.80;;;9.60;95.20;;;;;;20925767;28;20240;-70
2023/04/07 07:00:51;;;;;;;14.80;10.53;;;9.70;95.20;;;;;;20925383;28;20205;-68
2023/04/07 07:10:53;;;;;;;14.47;10.63;;;9.80;95.40;;;;;;20925644;28;20235;-70
2023/04/07 07:20:55;;;;;;;17.37;11.50;;;9.80;95.20;;;;;;20924710;28;20212;-70
2023/04/07 07:30:56;;;;;;;17.00;11.97;;;9.80;95.40;;;;;;20921941;28;20241;-68
2023/04/07 07:40:58;;;;;;;16.57;11.57;;;10.00;95.10;;;;;;20921742;28;20210;-66
2023/04/07 07:51:00;;;;;;;15.37;11.90;;;10.20;95.00;;;;;;20921312;28;20245;-66
2023/04/07 08:01:02;;;;;;;15.90;11.80;;;10.30;94.70;;;;;;20919982;28;20262;-67
2023/04/07 08:11:04;;;;;;;14.17;10.73;;;;;;;;;;20919149;28;20750;-70
2023/04/07 08:21:06;;;;;;;16.53;11.93;;;10.60;94.70;;;;;;20918999;28;20200;-70
2023/04/07 08:31:08;;;;;;;16.67;11.50;;;;;;;;;;20917658;28;20257;-71
2023/04/07 08:41:13;;;;;;;16.40;11.63;;;10.90;94.30;;;;;;20916473;28;20616;-71
2023/04/07 08:51:28;;;;;;;15.23;11.50;;;11.20;94.10;;;;;;20917034;28;20246;-66
2023/04/07 09:01:30;;;;;;;16.73;12.13;;;11.40;93.90;;;;;;20915433;28;20237;-66
2023/04/07 09:11:38;;;;;;;13.10;10.83;;;11.40;94.10;;;;;;20914412;28;20769;-67
2023/04/07 09:21:51;;;;;;;14.00;11.07;;;12.00;93.60;;;;;;20914220;28;20236;-72
2023/04/07 09:31:54;;;;;;;12.90;10.87;;;12.30;93.30;;;;;;20913160;28;20241;-65
2023/04/07 09:41:56;;;;;;;13.00;10.60;;;12.50;92.70;;;;;;20913022;28;20211;-65
2023/04/07 09:52:03;;;;;;;13.37;10.53;;;12.50;93.00;;;;;;20912144;28;20246;-66
2023/04/07 10:02:06;;;;;;;11.33;9.30;;;12.80;91.70;;;;;;20911855;28;20208;-66
2023/04/07 10:12:08;;;;;;;11.33;9.13;;;12.90;90.90;;;;;;20911169;28;20278;-66
2023/04/07 10:22:11;;;;;;;11.20;9.27;;;12.90;90.30;;;;;;20911387;28;20200;-65
2023/04/07 10:32:12;;;;;;;12.03;9.30;;;13.00;89.50;;;;;;20910866;28;20234;-65
2023/04/07 10:42:39;;;;;;;12.03;9.07;;;13.10;88.80;;;;;;20910436;28;20661;-66
2023/04/07 10:52:41;;;;;;;9.90;8.43;;;13.50;87.90;;;;;;20910156;28;20241;-66
2023/04/07 11:02:43;;;;;;;12.03;8.77;;;13.70;86.60;;;;;;20919729;28;20207;-71
2023/04/07 11:13:06;;;;;;;12.03;8.57;;;13.70;85.30;;;;;;20923274;28;20227;-71
2023/04/07 11:23:09;;;;;;;10.23;8.33;;;13.90;84.00;;;;;;20922663;28;20264;-70
2023/04/07 11:33:18;;;;;;;12.63;8.40;;;14.10;82.60;;;;;;20921368;28;20261;-67
2023/04/07 11:43:25;;;;;;;10.63;8.20;;;14.30;81.60;;;;;;20920860;28;20207;-67
2023/04/07 11:53:29;;;;;;;11.23;8.30;;;14.30;80.30;;;;;;20920007;28;20247;-67
2023/04/07 12:03:32;;;;;;;10.00;8.07;;;14.20;79.80;;;;;;20918833;28;20210;-68
2023/04/07 12:13:35;;;;;;;10.60;8.00;;;14.30;78.70;;;;;;20916402;28;20232;-68
2023/04/07 12:23:37;;;;;;;9.80;7.70;;;14.90;78.10;;;;;;20915288;28;20204;-67
2023/04/07 12:33:38;;;;;;;8.00;7.20;;;15.60;76.60;;;;;;20916617;28;20580;-68
2023/04/07 12:43:40;;;;;;;9.37;6.80;;;15.70;77.20;;;;;;20915758;28;20266;-67
2023/04/07 12:53:42;;;;;;;8.90;6.53;;;15.70;75.70;;;;;;20914467;28;20293;-67
2023/04/07 13:03:43;;;;;;;7.20;5.77;;;15.80;72.10;;;;;;20914786;28;20566;-67
2023/04/07 13:13:45;;;;;;;8.40;6.53;;;15.80;71.00;;;;;;20913281;28;20241;-67
2023/04/07 13:23:49;;;;;;;10.33;6.80;;;15.90;68.80;;;;;;20912998;28;20210;-71
2023/04/07 13:33:51;;;;;;;11.03;6.63;;;16.00;67.90;;;;;;20912001;28;20309;-66
2023/04/07 13:43:53;;;;;;;7.20;6.17;;;16.00;67.70;;;;;;20911755;28;20209;-67
2023/04/07 13:53:54;;;;;;;7.67;5.40;;;16.00;66.20;;;;;;20911334;28;20671;-68
2023/04/07 14:03:56;;;;;;;7.37;5.80;;;16.10;65.70;;;;;;20910672;28;20203;-67
2023/04/07 14:14:01;;;;;;;7.30;5.17;;;16.40;65.90;;;;;;20911943;28;20595;-67
2023/04/07 14:24:03;;;;;;;5.30;4.57;;;;;;;;;;20911261;28;20217;-68
2023/04/07 14:34:08;;;;;;;5.37;4.60;;;17.00;64.60;;;;;;20916262;28;20286;-68
2023/04/07 14:44:10;;;;;;;5.53;4.30;;;17.70;60.70;;;;;;20926544;28;20208;-72
2023/04/07 14:54:12;;;;;;;6.30;4.43;;;17.80;60.10;;;;;;20924783;28;20608;-68
2023/04/07 15:04:14;;;;;;;6.00;5.20;;;;;;;;;;20924777;28;20211;-70
2023/04/07 15:14:16;;;;;;;7.20;4.77;;;20.40;56.30;;;;;;20923534;28;20326;-68
2023/04/07 15:24:18;;;;;;;6.47;5.17;;;19.90;55.60;;;;;;20922884;28;20219;-67
2023/04/07 15:34:20;;;;;;;6.00;4.90;;;19.80;55.90;;;;;;20922513;28;20231;-67
2023/04/07 15:44:21;;;;;;;9.03;5.77;;;18.20;55.50;;;;;;20921052;28;20257;-67
2023/04/07 15:54:24;;;;;;;7.93;6.43;;;17.70;56.10;;;;;;20920552;28;20308;-68
2023/04/07 16:04:26;;;;;;;10.70;7.93;;;17.40;57.00;;;;;;20920339;28;20207;-70
2023/04/07 16:14:28;;;;;;;8.60;6.87;;;16.50;58.00;;;;;;20918172;28;20726;-67
2023/04/07 16:24:30;;;;;;;9.20;7.37;;;16.30;58.90;;;;;;20918644;28;20295;-66
2023/04/07 16:34:31;;;;;;;8.80;7.00;;;15.80;59.70;;;;;;20917858;28;20240;-68
2023/04/07 16:44:34;;;;;;;9.90;7.23;;;15.30;60.20;;;;;;20916715;28;20220;-68
2023/04/07 16:54:35;;;;;;;7.93;7.10;;;15.00;61.30;;;;;;20915138;28;20277;-68
2023/04/07 17:04:38;;;;;;;8.07;5.97;;;14.40;62.40;;;;;;20915715;28;20874;-67
2023/04/07 17:14:40;;;;;;;10.03;7.37;;;14.20;63.10;;;;;;20914640;28;20717;-66
2023/04/07 17:24:42;;;;;;;8.07;6.30;;;14.00;64.20;;;;;;20913953;28;20211;-70
2023/04/07 17:34:43;;;;;;;11.03;6.80;;;13.30;66.00;;;;;;20913421;28;20243;-67
2023/04/07 17:44:45;;;;;;;8.53;6.77;;;13.10;67.30;;;;;;20912331;28;20208;-67
2023/04/07 17:54:47;;;;;;;13.60;7.40;;;12.80;69.60;;;;;;20911967;28;20259;-66
2023/04/07 18:04:49;;;;;;;12.17;7.60;;;12.60;71.10;;;;;;20912107;28;20265;-66
2023/04/07 18:14:52;;;;;;;10.97;8.00;;;12.40;72.30;;;;;;20928047;28;20239;-66
2023/04/07 18:24:53;;;;;;;8.60;6.63;;;12.20;73.50;;;;;;20928822;28;20216;-68
2023/04/07 18:34:55;;;;;;;9.90;7.20;;;12.00;74.70;;;;;;20928463;28;20239;-68
2023/04/07 18:44:57;;;;;;;8.30;6.80;;;11.80;75.90;;;;;;20926193;28;20231;-70
2023/04/07 19:00:35;;;;;;;10.13;7.53;;;11.50;78.30;;;;;;20984600;28;20560;-65
2023/04/07 19:10:37;;;;;;;11.00;7.47;;;11.40;79.60;;;;;;20983382;28;20206;-66
2023/04/07 19:25:09;;;;;;;12.20;8.37;;;11.10;81.80;;;;;;20984389;28;20586;-71
2023/04/07 19:35:11;;;;;;;13.37;8.47;;;11.00;83.60;;;;;;20983290;28;20222;-70
2023/04/07 19:45:12;;;;;;;15.57;8.70;;;10.80;85.40;;;;;;20982308;28;20656;-70
2023/04/07 19:55:15;;;;;;;11.43;8.37;;;10.70;86.80;;;;;;20981199;28;20250;-66
2023/04/07 20:05:18;;;;;;;14.43;8.37;;;10.70;88.40;;;;;;20980931;28;20215;-70
2023/04/07 20:15:20;;;;;;;17.20;11.43;;;10.50;90.00;;;;;;20979876;28;20576;-68
2023/04/07 20:25:22;;;;;;;12.27;9.43;;;10.40;90.80;;;;;;20980047;28;20217;-66
2023/04/07 20:35:24;;;;;;;11.00;8.83;;;10.20;91.60;;;;;;20930307;28;20215;-66
2023/04/07 20:45:26;;;;;;;13.13;9.20;;;10.10;92.50;;;;;;20922420;28;20692;-67
2023/04/07 20:55:28;;;;;;;16.10;10.07;;;10.10;93.00;;;;;;20921467;28;20295;-67
2023/04/07 21:05:30;;;;;;;14.70;10.60;;;9.90;93.80;;;;;;20921392;28;20214;-66
2023/04/07 21:15:31;;;;;;;13.77;9.97;;;9.70;94.20;;;;;;20920306;28;20637;-71
2023/04/07 21:25:36;;;;;;;16.00;9.83;;;9.50;95.10;;;;;;20919711;28;20213;-68
2023/04/07 21:35:38;;;;;;;11.77;9.40;;;9.40;95.60;;;;;;20919281;28;20691;-67
2023/04/07 21:45:39;;;;;;;12.93;10.20;;;9.40;96.10;;;;;;20917309;28;20214;-67
2023/04/07 21:55:41;;;;;;;15.90;11.07;;;9.20;96.30;;;;;;20917818;28;20330;-67
2023/04/07 22:05:45;;;;;;;15.87;12.03;;;9.20;96.20;;;;;;20918650;28;20207;-69
2023/04/07 22:15:46;;;;;;;17.13;11.60;;;9.10;96.30;;;;;;20915939;28;20245;-67
2023/04/07 22:25:48;;;;;;;14.87;11.30;;;9.00;96.20;;;;;;20915266;28;20623;-68
2023/04/07 22:35:50;;;;;;;14.23;10.27;;;8.90;96.20;;;;;;20914769;28;20237;-66
2023/04/07 22:45:52;;;;;;;13.60;9.97;;;8.60;96.20;;;;;;20914021;28;20214;-67
2023/04/07 22:55:53;;;;;;;15.57;10.87;;;8.60;96.40;;;;;;20913122;28;20760;-66
2023/04/07 23:05:55;;;;;;;14.93;10.70;;;8.40;96.40;;;;;;20913106;28;20206;-66
2023/04/07 23:15:57;;;;;;;14.30;10.23;;;8.30;96.50;;;;;;20912020;28;20245;-69
2023/04/07 23:25:58;;;;;;;13.50;9.53;;;8.20;96.60;;;;;;20912175;28;20210;-69
2023/04/07 23:36:01;;;;;;;15.80;10.20;;;8.20;97.00;;;;;;20911934;28;20229;-67
2023/04/07 23:46:02;;;;;;;13.93;10.57;;;8.20;97.20;;;;;;20911273;28;20213;-71
2023/04/07 23:56:04;;;;;;;16.33;10.27;;;8.20;97.30;;;;;;20910937;28;20234;-69
